createdAt,value
2022-10-07T00:00:21.883Z,99.99
2022-10-07T00:01:21.715Z,99.99
2022-10-07T00:02:21.695Z,99.99
2022-10-07T00:03:21.863Z,99.99
2022-10-07T00:04:21.818Z,99.99
2022-10-07T00:05:21.834Z,99.99
2022-10-07T00:06:21.795Z,99.99
2022-10-07T00:07:21.494Z,99.99
2022-10-07T00:08:21.496Z,99.99
2022-10-07T00:09:21.748Z,99.99
2022-10-07T00:10:22.297Z,99.99
2022-10-07T00:11:22.280Z,99.99
2022-10-07T00:12:22.271Z,99.99
2022-10-07T00:13:22.259Z,99.99
2022-10-07T00:14:22.238Z,99.99
2022-10-07T00:15:21.942Z,99.99
2022-10-07T00:16:22.313Z,99.99
2022-10-07T00:17:22.190Z,99.99
2022-10-07T00:18:21.896Z,99.99
2022-10-07T00:19:22.189Z,99.99
2022-10-07T00:20:22.139Z,99.99
2022-10-07T00:21:22.150Z,99.99
2022-10-07T00:22:21.837Z,99.99
2022-10-07T00:23:22.090Z,99.99
2022-10-07T00:24:21.813Z,99.99
2022-10-07T00:25:22.067Z,99.99
2022-10-07T00:26:22.046Z,99.99
2022-10-07T00:27:22.030Z,99.99
2022-10-07T00:28:22.170Z,99.99
2022-10-07T00:29:21.999Z,99.99
2022-10-07T00:30:21.985Z,99.99
2022-10-07T00:31:22.245Z,99.99
2022-10-07T00:32:21.955Z,99.99
2022-10-07T00:33:21.936Z,99.99
2022-10-07T00:34:21.922Z,99.99
2022-10-07T00:35:21.606Z,99.99
2022-10-07T00:36:21.610Z,99.99
2022-10-07T00:37:21.853Z,99.99
2022-10-07T00:38:21.762Z,99.99
2022-10-07T00:39:21.743Z,99.99
2022-10-07T00:40:21.472Z,99.99
2022-10-07T00:41:21.457Z,99.99
2022-10-07T00:42:21.701Z,99.99
2022-10-07T00:43:21.425Z,99.99
2022-10-07T00:44:21.410Z,99.99
2022-10-07T00:45:21.647Z,99.99
2022-10-07T00:46:21.836Z,99.99
2022-10-07T00:47:21.364Z,99.99
2022-10-07T00:48:21.347Z,99.99
2022-10-07T00:49:21.330Z,99.99
2022-10-07T00:50:21.573Z,99.99
2022-10-07T00:51:21.431Z,99.99
2022-10-07T00:52:21.285Z,99.99
2022-10-07T00:53:21.548Z,99.99
2022-10-07T00:54:21.513Z,99.99
2022-10-07T00:55:21.244Z,99.99
2022-10-07T00:56:21.481Z,99.99
2022-10-07T00:57:21.462Z,99.99
2022-10-07T00:58:21.448Z,99.99
2022-10-07T00:59:21.430Z,99.99
2022-10-07T01:00:21.417Z,99.99
2022-10-07T01:01:21.529Z,99.99
2022-10-07T01:02:21.608Z,99.99
2022-10-07T01:03:21.368Z,99.99
2022-10-07T01:04:21.350Z,99.99
2022-10-07T01:05:21.082Z,99.99
2022-10-07T01:06:21.062Z,99.99
2022-10-07T01:07:21.325Z,99.99
2022-10-07T01:08:21.031Z,99.99
2022-10-07T01:09:21.295Z,99.99
2022-10-07T01:10:21.010Z,99.99
2022-10-07T01:11:20.984Z,99.99
2022-10-07T01:12:21.224Z,99.99
2022-10-07T01:13:21.207Z,99.99
2022-10-07T01:14:21.196Z,99.99
2022-10-07T01:15:20.922Z,99.99
2022-10-07T01:16:21.231Z,99.99
2022-10-07T01:17:20.890Z,99.99
2022-10-07T01:18:21.131Z,99.99
2022-10-07T01:19:20.861Z,99.99
2022-10-07T01:20:20.843Z,99.99
2022-10-07T01:21:21.112Z,99.99
2022-10-07T01:22:21.067Z,99.99
2022-10-07T01:23:20.830Z,99.99
2022-10-07T01:24:20.778Z,99.99
2022-10-07T01:25:21.048Z,99.99
2022-10-07T01:26:21.011Z,99.99
2022-10-07T01:27:20.738Z,99.99
2022-10-07T01:28:21.129Z,99.99
2022-10-07T01:29:20.705Z,99.99
2022-10-07T01:30:20.685Z,99.99
2022-10-07T01:31:20.769Z,99.99
2022-10-07T01:32:20.650Z,99.99
2022-10-07T01:33:20.642Z,99.99
2022-10-07T01:34:20.879Z,99.99
2022-10-07T01:35:20.867Z,99.99
2022-10-07T01:36:20.844Z,99.99
2022-10-07T01:37:20.574Z,99.99
2022-10-07T01:38:20.811Z,99.99
2022-10-07T01:39:20.822Z,99.99
2022-10-07T01:40:20.777Z,99.99
2022-10-07T01:41:20.826Z,99.99
2022-10-07T01:42:20.749Z,99.99
2022-10-07T01:43:20.480Z,99.99
2022-10-07T01:44:20.459Z,99.99
2022-10-07T01:45:20.702Z,99.99
2022-10-07T01:46:20.653Z,99.99
2022-10-07T01:47:20.670Z,99.99
2022-10-07T01:48:20.652Z,99.99
2022-10-07T01:49:20.382Z,99.99
2022-10-07T01:50:20.635Z,99.99
2022-10-07T01:51:20.608Z,99.99
2022-10-07T01:52:20.593Z,99.99
2022-10-07T01:53:20.577Z,99.99
2022-10-07T01:54:20.560Z,99.99
2022-10-07T01:55:20.735Z,99.99
2022-10-07T01:56:20.527Z,99.99
2022-10-07T01:57:20.538Z,99.99
2022-10-07T01:58:20.491Z,99.99
2022-10-07T01:59:20.375Z,99.99
2022-10-07T02:00:20.462Z,99.99
2022-10-07T02:01:20.335Z,99.99
2022-10-07T02:02:20.442Z,99.99
2022-10-07T02:03:20.599Z,99.99
2022-10-07T02:04:20.398Z,99.99
2022-10-07T02:05:20.124Z,99.99
2022-10-07T02:06:20.369Z,99.99
2022-10-07T02:07:20.096Z,99.99
2022-10-07T02:08:20.083Z,99.99
2022-10-07T02:09:20.317Z,99.99
2022-10-07T02:10:20.050Z,99.99
2022-10-07T02:11:20.055Z,99.99
2022-10-07T02:12:20.270Z,99.99
2022-10-07T02:13:20.275Z,99.99
2022-10-07T02:14:20.240Z,99.99
2022-10-07T02:15:19.965Z,99.99
2022-10-07T02:16:20.375Z,99.99
2022-10-07T02:17:20.187Z,99.99
2022-10-07T02:18:19.923Z,99.99
2022-10-07T02:19:19.901Z,99.99
2022-10-07T02:20:19.888Z,99.99
2022-10-07T02:21:20.883Z,99.99
2022-10-07T02:22:21.125Z,99.99
2022-10-07T02:23:21.106Z,99.99
2022-10-07T02:24:21.091Z,99.99
2022-10-07T02:25:21.078Z,99.99
2022-10-07T02:26:20.804Z,99.99
2022-10-07T02:27:20.905Z,99.99
2022-10-07T02:28:21.142Z,99.99
2022-10-07T02:29:21.034Z,99.99
2022-10-07T02:30:20.741Z,99.99
2022-10-07T02:31:21.113Z,99.99
2022-10-07T02:32:20.714Z,99.99
2022-10-07T02:33:20.692Z,99.99
2022-10-07T02:34:22.726Z,99.99
2022-10-07T02:35:20.915Z,99.99
2022-10-07T02:36:20.642Z,99.99
2022-10-07T02:37:20.629Z,99.99
2022-10-07T02:38:20.868Z,99.99
2022-10-07T02:39:20.848Z,99.99
2022-10-07T02:40:20.837Z,99.99
2022-10-07T02:41:20.561Z,99.99
2022-10-07T02:42:20.545Z,99.99
2022-10-07T02:43:21.849Z,99.99
2022-10-07T02:44:21.557Z,99.99
2022-10-07T02:45:27.138Z,99.99
2022-10-07T02:46:21.910Z,99.99
2022-10-07T02:47:21.758Z,99.99
2022-10-07T02:48:21.750Z,99.99
2022-10-07T02:49:21.469Z,99.99
2022-10-07T02:50:21.716Z,99.99
2022-10-07T02:51:23.767Z,99.99
2022-10-07T02:52:21.684Z,99.99
2022-10-07T02:53:21.408Z,99.99
2022-10-07T02:54:21.651Z,99.99
2022-10-07T02:55:21.395Z,99.99
2022-10-07T02:56:21.615Z,99.99
2022-10-07T02:57:21.597Z,99.99
2022-10-07T02:58:21.580Z,99.99
2022-10-07T02:59:21.589Z,99.99
2022-10-07T03:00:21.548Z,99.99
2022-10-07T03:01:21.670Z,99.99
2022-10-07T03:02:21.519Z,99.99
2022-10-07T03:03:21.673Z,99.99
2022-10-07T03:04:21.225Z,99.99
2022-10-07T03:05:22.221Z,99.99
2022-10-07T03:06:22.202Z,99.99
2022-10-07T03:07:22.445Z,99.99
2022-10-07T03:08:22.429Z,99.99
2022-10-07T03:09:22.408Z,99.99
2022-10-07T03:10:22.391Z,99.99
2022-10-07T03:11:22.117Z,99.99
2022-10-07T03:12:22.100Z,99.99
2022-10-07T03:13:22.345Z,99.99
2022-10-07T03:14:22.071Z,99.99
2022-10-07T03:15:22.401Z,99.99
2022-10-07T03:16:22.307Z,99.99
2022-10-07T03:17:22.449Z,99.99
2022-10-07T03:18:22.008Z,99.99
2022-10-07T03:19:21.988Z,99.99
2022-10-07T03:20:21.970Z,99.99
2022-10-07T03:21:22.215Z,99.99
2022-10-07T03:22:22.196Z,99.99
2022-10-07T03:23:22.186Z,99.99
2022-10-07T03:24:21.929Z,99.99
2022-10-07T03:25:22.145Z,99.99
2022-10-07T03:26:21.879Z,99.99
2022-10-07T03:27:21.858Z,99.99
2022-10-07T03:28:21.953Z,99.99
2022-10-07T03:29:22.086Z,99.99
2022-10-07T03:30:26.964Z,99.99
2022-10-07T03:31:21.954Z,99.99
2022-10-07T03:32:21.781Z,99.99
2022-10-07T03:49:46.887Z,99.99
2022-10-07T03:50:46.814Z,99.99
2022-10-07T03:51:46.862Z,99.99
2022-10-07T03:52:46.780Z,99.99
2022-10-07T03:53:46.508Z,99.99
2022-10-07T03:54:46.745Z,99.99
2022-10-07T03:55:46.725Z,99.99
2022-10-07T03:56:46.704Z,99.99
2022-10-07T03:57:47.227Z,99.99
2022-10-07T03:58:46.669Z,99.99
2022-10-07T03:59:46.654Z,99.99
2022-10-07T04:00:46.634Z,99.99
2022-10-07T04:01:46.543Z,99.99
2022-10-07T04:02:46.692Z,99.99
2022-10-07T04:03:46.334Z,99.99
2022-10-07T04:04:46.563Z,99.99
2022-10-07T04:05:46.596Z,99.99
2022-10-07T04:06:46.530Z,99.99
2022-10-07T04:07:47.198Z,99.99
2022-10-07T04:08:46.239Z,99.99
2022-10-07T04:09:46.484Z,99.96
2022-10-07T04:10:46.214Z,99.99
2022-10-07T04:11:46.192Z,99.86
2022-10-07T04:12:46.172Z,99.99
2022-10-07T04:13:46.158Z,99.39
2022-10-07T04:14:46.396Z,98.82
2022-10-07T04:15:46.152Z,97.3
2022-10-07T04:16:46.207Z,97.02
2022-10-07T04:17:46.816Z,96.83
2022-10-07T04:18:46.077Z,96.36
2022-10-07T04:19:46.050Z,96.73
2022-10-07T04:20:46.290Z,96.83
2022-10-07T04:21:46.325Z,96.17
2022-10-07T04:22:46.000Z,96.17
2022-10-07T04:23:46.243Z,95.69
2022-10-07T04:24:45.965Z,95.31
2022-10-07T04:25:46.233Z,94.74
2022-10-07T04:26:45.933Z,94.37
2022-10-07T04:27:54.577Z,93.51
2022-10-07T04:28:46.029Z,93.42
2022-10-07T04:29:45.886Z,92.94
2022-10-07T04:30:45.925Z,92.71
2022-10-07T04:31:46.037Z,92.8
2022-10-07T04:32:45.835Z,92.8
2022-10-07T04:33:45.818Z,93.18
2022-10-07T04:34:46.053Z,93.75
2022-10-07T04:35:45.787Z,93.46
2022-10-07T04:36:45.765Z,93.37
2022-10-07T04:37:46.916Z,92.8
2022-10-07T04:38:45.732Z,92.99
2022-10-07T04:40:03.065Z,93.08
2022-10-07T04:40:45.702Z,93.27
2022-10-07T04:41:45.685Z,93.94
2022-10-07T04:42:45.927Z,92.99
2022-10-07T04:43:45.909Z,93.46
2022-10-07T04:44:45.895Z,93.84
2022-10-07T04:45:45.888Z,93.46
2022-10-07T04:46:45.990Z,94.23
2022-10-07T04:47:46.836Z,93.94
2022-10-07T04:48:45.829Z,94.42
2022-10-07T04:49:45.816Z,94.42
2022-10-07T04:50:45.794Z,94.42
2022-10-07T04:51:45.774Z,94.42
2022-10-07T04:52:45.761Z,94.23
2022-10-07T04:53:45.791Z,94.89
2022-10-07T04:54:45.474Z,94.98
2022-10-07T04:55:45.455Z,95.45
2022-10-07T04:56:45.453Z,95.55
2022-10-07T04:57:46.450Z,95.93
2022-10-07T04:58:45.676Z,95.65
2022-10-07T04:59:45.793Z,95.55
2022-10-07T05:00:45.820Z,95.93
2022-10-07T05:01:45.529Z,96.31
2022-10-07T05:02:45.598Z,96.12
2022-10-07T05:03:45.579Z,96.12
2022-10-07T05:04:45.562Z,95.93
2022-10-07T05:05:45.293Z,95.55
2022-10-07T05:06:45.278Z,95.65
2022-10-07T05:07:45.923Z,95.45
2022-10-07T05:08:45.501Z,95.17
2022-10-07T05:09:45.526Z,95.74
2022-10-07T05:10:45.465Z,95.84
2022-10-07T05:11:45.449Z,95.93
2022-10-07T05:12:45.199Z,95.65
2022-10-07T05:13:45.419Z,96.12
2022-10-07T05:14:45.152Z,96.12
2022-10-07T05:15:45.381Z,95.65
2022-10-07T05:16:45.289Z,95.26
2022-10-07T05:17:46.268Z,94.98
2022-10-07T05:18:45.083Z,94.89
2022-10-07T05:19:45.331Z,94.23
2022-10-07T05:20:45.045Z,94.23
2022-10-07T05:21:45.486Z,93.94
2022-10-07T05:22:45.279Z,93.84
2022-10-07T05:23:45.249Z,94.23
2022-10-07T05:24:45.236Z,93.84
2022-10-07T05:25:45.265Z,93.84
2022-10-07T05:26:45.215Z,93.84
2022-10-07T05:27:45.914Z,94.23
2022-10-07T05:28:45.333Z,94.13
2022-10-07T05:29:44.899Z,92.99
2022-10-07T05:30:44.882Z,91.85
2022-10-07T05:31:45.310Z,91
2022-10-07T05:32:45.107Z,90.53
2022-10-07T05:33:44.838Z,90.34
2022-10-07T05:34:44.817Z,89.77
2022-10-07T05:35:44.807Z,89.67
2022-10-07T05:36:45.046Z,89.2
2022-10-07T05:37:51.261Z,89.29
2022-10-07T05:38:44.759Z,89.11
2022-10-07T05:39:44.994Z,87.87
2022-10-07T05:40:44.974Z,86.68
2022-10-07T05:41:48.293Z,86.3
2022-10-07T05:42:44.938Z,85.64
2022-10-07T05:43:44.935Z,84.98
2022-10-07T05:44:44.653Z,84.78
2022-10-07T05:45:44.967Z,84.12
2022-10-07T05:46:44.877Z,84.5
2022-10-07T05:47:45.425Z,84.64
2022-10-07T05:48:44.847Z,83.69
2022-10-07T05:49:44.574Z,83.22
2022-10-07T05:50:44.813Z,83.31
2022-10-07T05:51:44.797Z,83.5
2022-10-07T05:52:44.528Z,83.59
2022-10-07T05:53:44.507Z,83.97
2022-10-07T05:54:44.493Z,83.59
2022-10-07T05:55:44.475Z,83.78
2022-10-07T05:56:44.714Z,83.88
2022-10-07T05:57:45.257Z,83.69
2022-10-07T05:58:44.430Z,84.07
2022-10-07T05:59:44.420Z,83.78
2022-10-07T06:00:44.653Z,83.59
2022-10-07T06:01:44.524Z,83.03
2022-10-07T06:02:44.711Z,82.65
2022-10-07T06:03:44.353Z,82.69
2022-10-07T06:04:44.592Z,81.84
2022-10-07T06:05:44.321Z,81.45
2022-10-07T06:06:44.304Z,81.17
2022-10-07T06:07:45.306Z,81.07
2022-10-07T06:08:44.526Z,81.26
2022-10-07T06:09:44.263Z,81.55
2022-10-07T06:10:44.503Z,81.74
2022-10-07T06:11:44.486Z,81.97
2022-10-07T06:12:44.467Z,82.35
2022-10-07T06:13:44.517Z,82.64
2022-10-07T06:14:44.440Z,82.54
2022-10-07T06:15:44.444Z,81.59
2022-10-07T06:16:44.579Z,82.16
2022-10-07T06:17:44.640Z,81.59
2022-10-07T06:18:44.121Z,81.3
2022-10-07T06:19:44.107Z,80.93
2022-10-07T06:20:44.347Z,81.12
2022-10-07T06:21:44.078Z,81.49
2022-10-07T06:22:44.315Z,81.21
2022-10-07T06:23:44.049Z,80.93
2022-10-07T06:24:44.297Z,80.64
2022-10-07T06:25:44.274Z,80.83
2022-10-07T06:26:44.005Z,81.21
2022-10-07T06:27:45.686Z,81.21
2022-10-07T06:28:44.098Z,80.64
2022-10-07T06:29:44.266Z,80.55
2022-10-07T06:30:44.298Z,80.16
2022-10-07T06:31:44.187Z,80.16
2022-10-07T06:32:43.921Z,79.69
2022-10-07T06:33:44.157Z,79.79
2022-10-07T06:34:43.887Z,79.41
2022-10-07T06:35:44.132Z,79.69
2022-10-07T06:36:43.870Z,79.6
2022-10-07T06:37:44.240Z,79.83
2022-10-07T06:38:44.088Z,78.88
2022-10-07T06:39:44.078Z,79.25
2022-10-07T06:40:43.804Z,79.25
2022-10-07T06:41:44.042Z,78.88
2022-10-07T06:42:44.029Z,78.97
2022-10-07T06:43:44.014Z,78.97
2022-10-07T06:44:43.745Z,78.59
2022-10-07T06:45:44.150Z,78.02
2022-10-07T06:46:44.288Z,78.02
2022-10-07T06:47:44.603Z,78.21
2022-10-07T06:48:44.521Z,78.11
2022-10-07T06:49:44.248Z,78.3
2022-10-07T06:50:44.490Z,78.06
2022-10-07T06:51:44.494Z,78.34
2022-10-07T06:52:46.042Z,78.06
2022-10-07T06:53:44.444Z,78.5
2022-10-07T06:54:44.455Z,78.34
2022-10-07T06:55:44.419Z,77.39
2022-10-07T06:56:44.404Z,77.39
2022-10-07T06:57:48.347Z,78.25
2022-10-07T06:58:44.122Z,78.25
2022-10-07T06:59:44.106Z,77.58
2022-10-07T07:00:44.351Z,77.49
2022-10-07T07:01:44.533Z,77.2
2022-10-07T07:02:44.519Z,77.2
2022-10-07T07:03:44.307Z,77.11
2022-10-07T07:04:44.424Z,77.3
2022-10-07T07:05:48.744Z,77.97
2022-10-07T07:06:44.024Z,77.58
2022-10-07T07:07:44.372Z,77.39
2022-10-07T07:08:44.713Z,77.58
2022-10-07T07:09:44.952Z,77.49
2022-10-07T07:10:44.687Z,77.3
2022-10-07T07:11:44.674Z,77.2
2022-10-07T07:12:45.407Z,77.11
2022-10-07T07:13:48.399Z,77.39
2022-10-07T07:14:44.887Z,77.39
2022-10-07T07:15:44.617Z,77.01
2022-10-07T07:16:44.698Z,76.92
2022-10-07T07:17:45.523Z,76.92
2022-10-07T07:18:44.831Z,76.76
2022-10-07T07:19:44.565Z,76.73
2022-10-07T07:20:44.802Z,76.44
2022-10-07T07:21:46.565Z,76.2
2022-10-07T07:22:44.522Z,76.48
2022-10-07T07:23:44.773Z,76.48
2022-10-07T07:24:44.758Z,76.29
2022-10-07T07:25:44.739Z,76.2
2022-10-07T07:26:44.471Z,76.2
2022-10-07T07:27:44.935Z,75.91
2022-10-07T07:28:44.541Z,75.72
2022-10-07T07:29:44.687Z,75.72
2022-10-07T07:30:45.709Z,75.72
2022-10-07T07:31:45.605Z,75.81
2022-10-07T07:32:45.582Z,75.81
2022-10-07T07:33:45.659Z,75.81
2022-10-07T07:34:45.457Z,75.43
2022-10-07T07:35:45.551Z,75.53
2022-10-07T07:36:45.279Z,75.62
2022-10-07T07:37:46.114Z,75.81
2022-10-07T07:38:45.503Z,74.96
2022-10-07T07:39:45.495Z,75.85
2022-10-07T07:40:45.484Z,75.19
2022-10-07T07:41:45.207Z,74.8
2022-10-07T07:42:45.454Z,74.8
2022-10-07T07:43:45.187Z,74.9
2022-10-07T07:44:45.435Z,74.99
2022-10-07T07:45:45.217Z,74.71
2022-10-07T07:46:45.402Z,74.71
2022-10-07T07:47:45.872Z,74.52
2022-10-07T07:48:45.124Z,74.43
2022-10-07T07:49:45.412Z,74.43
2022-10-07T07:50:45.094Z,74.43
2022-10-07T07:51:45.086Z,74.62
2022-10-07T07:52:45.922Z,74.24
2022-10-07T07:53:45.658Z,74.33
2022-10-07T07:54:45.642Z,74.14
2022-10-07T07:55:45.890Z,74.04
2022-10-07T07:56:45.620Z,74.43
2022-10-07T07:57:46.848Z,73.85
2022-10-07T07:58:45.853Z,73.85
2022-10-07T07:59:45.847Z,73.89
2022-10-07T08:00:45.827Z,73.99
2022-10-07T08:01:45.568Z,73.99
2022-10-07T08:02:45.959Z,73.89
2022-10-07T08:03:45.535Z,74.08
2022-10-07T08:04:45.522Z,73.61
2022-10-07T08:05:45.831Z,73.03
2022-10-07T08:06:45.517Z,72.85
2022-10-07T08:07:46.543Z,73.03
2022-10-07T08:08:45.476Z,73.51
2022-10-07T08:09:45.722Z,73.03
2022-10-07T08:10:49.675Z,72.85
2022-10-07T08:11:45.701Z,73.03
2022-10-07T08:12:45.428Z,73.03
2022-10-07T08:13:45.670Z,72.41
2022-10-07T08:14:45.895Z,72.21
2022-10-07T08:15:45.966Z,72.69
2022-10-07T08:16:46.129Z,72.21
2022-10-07T08:17:46.605Z,72.21
2022-10-07T08:18:46.103Z,72.41
2022-10-07T08:19:46.088Z,72.41
2022-10-07T08:20:45.821Z,72.5
2022-10-07T08:21:46.115Z,72.12
2022-10-07T08:22:45.801Z,72.69
2022-10-07T08:23:45.784Z,72.12
2022-10-07T08:24:46.033Z,72.31
2022-10-07T08:25:45.764Z,72.41
2022-10-07T08:26:45.751Z,72.12
2022-10-07T08:27:46.493Z,72.31
2022-10-07T08:28:45.991Z,71.93
2022-10-07T08:29:45.968Z,72.12
2022-10-07T08:30:45.800Z,72.02
2022-10-07T08:31:45.961Z,71.39
2022-10-07T08:32:45.684Z,71.68
2022-10-07T08:33:45.928Z,71.77
2022-10-07T08:34:45.915Z,71.68
2022-10-07T08:35:45.905Z,71.48
2022-10-07T08:36:45.894Z,71.77
2022-10-07T08:37:46.842Z,71.48
2022-10-07T08:38:47.032Z,71.48
2022-10-07T08:39:45.873Z,71.2
2022-10-07T08:40:45.852Z,71.01
2022-10-07T08:41:45.835Z,71.01
2022-10-07T08:42:45.570Z,71.43
2022-10-07T08:43:45.559Z,70.95
2022-10-07T08:44:45.811Z,71.04
2022-10-07T08:45:45.791Z,71.04
2022-10-07T08:46:45.788Z,70.67
2022-10-07T08:47:46.535Z,70.57
2022-10-07T08:48:45.763Z,70.19
2022-10-07T08:49:45.749Z,70.28
2022-10-07T08:50:45.743Z,70.09
2022-10-07T08:51:45.727Z,70.19
2022-10-07T08:52:45.720Z,70.32
2022-10-07T08:53:45.762Z,70.51
2022-10-07T08:54:45.700Z,70.32
2022-10-07T08:55:45.686Z,71.08
2022-10-07T08:56:45.420Z,71.18
2022-10-07T08:57:46.331Z,70.98
2022-10-07T08:58:45.400Z,70.98
2022-10-07T08:59:45.648Z,71.37
2022-10-07T09:00:45.635Z,71.84
2022-10-07T09:01:45.709Z,71.37
2022-10-07T09:02:45.797Z,72.17
2022-10-07T09:03:45.605Z,72.83
2022-10-07T09:04:45.593Z,73.22
2022-10-07T09:05:45.582Z,73.69
2022-10-07T09:06:45.318Z,74.08
2022-10-07T09:07:46.285Z,75.6
2022-10-07T09:08:45.556Z,76.03
2022-10-07T09:09:45.591Z,77.13
2022-10-07T09:10:45.278Z,78.03
2022-10-07T09:11:45.527Z,78.6
2022-10-07T09:12:45.516Z,79.46
2022-10-07T09:13:45.509Z,80.41
2022-10-07T09:14:45.494Z,81.47
2022-10-07T09:15:45.638Z,81.76
2022-10-07T09:16:45.220Z,83.33
2022-10-07T09:17:45.213Z,83.7
2022-10-07T09:18:45.204Z,84.47
2022-10-07T09:19:45.194Z,86
2022-10-07T09:20:45.439Z,86.38
2022-10-07T09:21:45.427Z,88.1
2022-10-07T09:22:45.171Z,89.63
2022-10-07T09:23:45.412Z,91.06
2022-10-07T09:24:46.151Z,91.74
2022-10-07T09:25:45.441Z,92.88
2022-10-07T09:26:45.125Z,94.6
2022-10-07T09:27:46.269Z,96.42
2022-10-07T09:28:45.520Z,97.85
2022-10-07T09:29:45.358Z,99.52
2022-10-07T09:30:45.532Z,99.99
2022-10-07T09:31:45.085Z,99.99
2022-10-07T09:32:45.070Z,99.99
2022-10-07T09:33:45.325Z,99.99
2022-10-07T09:34:45.308Z,99.99
2022-10-07T09:35:45.046Z,99.99
2022-10-07T09:36:45.293Z,99.99
2022-10-07T09:37:46.087Z,99.99
2022-10-07T09:38:45.274Z,99.99
2022-10-07T09:39:45.010Z,99.99
2022-10-07T09:40:45.254Z,99.99
2022-10-07T09:41:45.297Z,99.99
2022-10-07T09:42:44.984Z,99.99
2022-10-07T09:43:45.231Z,99.99
2022-10-07T09:44:45.224Z,99.99
2022-10-07T09:45:45.216Z,99.99
2022-10-07T09:46:45.051Z,99.99
2022-10-07T09:47:45.943Z,99.99
2022-10-07T09:48:44.933Z,99.99
2022-10-07T09:49:44.932Z,99.99
2022-10-07T09:50:44.928Z,99.99
2022-10-07T09:51:44.910Z,99.99
2022-10-07T09:52:44.901Z,99.99
2022-10-07T09:53:45.146Z,99.99
2022-10-07T09:54:45.176Z,99.99
2022-10-07T09:55:45.132Z,99.99
2022-10-07T09:56:44.871Z,99.99
2022-10-07T09:57:45.835Z,99.99
2022-10-07T09:58:45.117Z,99.99
2022-10-07T09:59:45.101Z,99.99
2022-10-07T10:00:45.100Z,99.99
2022-10-07T10:01:45.190Z,99.99
2022-10-07T10:02:45.352Z,99.99
2022-10-07T10:03:45.225Z,99.99
2022-10-07T10:04:44.812Z,98.05
2022-10-07T10:05:45.050Z,94.4
2022-10-07T10:06:44.792Z,91.34
2022-10-07T10:07:45.792Z,88.95
2022-10-07T10:08:44.785Z,87.61
2022-10-07T10:09:44.923Z,85.88
2022-10-07T10:10:45.016Z,85.88
2022-10-07T10:11:45.023Z,84.92
2022-10-07T10:12:45.529Z,84.06
2022-10-07T10:13:45.102Z,82.82
2022-10-07T10:14:44.733Z,82.15
2022-10-07T10:15:45.155Z,80.81
2022-10-07T10:16:44.718Z,79.32
2022-10-07T10:17:44.963Z,78.99
2022-10-07T10:18:44.701Z,78.61
2022-10-07T10:19:44.945Z,79.57
2022-10-07T10:20:44.686Z,80.04
2022-10-07T10:21:44.677Z,81.04
2022-10-07T10:22:45.574Z,80.94
2022-10-07T10:23:44.917Z,80.85
2022-10-07T10:24:44.912Z,79.7
2022-10-07T10:25:44.903Z,78.84
2022-10-07T10:26:44.642Z,77.5
2022-10-07T10:27:44.629Z,77.02
2022-10-07T10:28:44.728Z,76.15
2022-10-07T10:29:44.921Z,76.44
2022-10-07T10:30:44.867Z,76.54
2022-10-07T10:31:44.603Z,76.54
2022-10-07T10:32:45.083Z,76.54
2022-10-07T10:33:44.841Z,76.64
2022-10-07T10:34:44.581Z,76.44
2022-10-07T10:35:44.828Z,76.25
2022-10-07T10:36:44.828Z,75.87
2022-10-07T10:37:44.815Z,75.2
2022-10-07T10:38:44.814Z,74.52
2022-10-07T10:39:44.807Z,74.05
2022-10-07T10:40:44.791Z,73.86
2022-10-07T10:41:44.530Z,73.95
2022-10-07T10:42:45.134Z,73.95
2022-10-07T10:43:44.516Z,73.95
2022-10-07T10:44:44.515Z,74.24
2022-10-07T10:45:44.813Z,75.33
2022-10-07T10:46:47.358Z,75.23
2022-10-07T10:47:44.487Z,75.52
2022-10-07T10:48:44.733Z,75.23
2022-10-07T10:49:44.734Z,74.85
2022-10-07T10:50:44.720Z,74.76
2022-10-07T10:51:44.479Z,75.33
2022-10-07T10:52:45.515Z,75.52
2022-10-07T10:53:44.701Z,74.95
2022-10-07T10:54:44.691Z,74.69
2022-10-07T10:55:44.432Z,73.99
2022-10-07T10:56:44.700Z,74.18
2022-10-07T10:57:44.671Z,74.08
2022-10-07T10:58:44.668Z,74.41
2022-10-07T10:59:44.663Z,74.51
2022-10-07T11:00:44.652Z,73.93
2022-10-07T11:01:44.856Z,73.9
2022-10-07T11:02:44.970Z,73.51
2022-10-07T11:03:44.377Z,73.7
2022-10-07T11:04:44.632Z,73.13
2022-10-07T11:05:44.367Z,73.13
2022-10-07T11:06:44.354Z,73.99
2022-10-07T11:07:44.347Z,73.13
2022-10-07T11:08:44.342Z,73.61
2022-10-07T11:09:44.595Z,73.7
2022-10-07T11:10:44.586Z,73.95
2022-10-07T11:11:44.580Z,74.27
2022-10-07T11:12:45.092Z,73.32
2022-10-07T11:13:44.569Z,73.61
2022-10-07T11:14:44.558Z,73.51
2022-10-07T11:15:44.645Z,73.7
2022-10-07T11:16:44.563Z,73.51
2022-10-07T11:17:44.646Z,73.22
2022-10-07T11:18:44.535Z,73.51
2022-10-07T11:19:44.267Z,73.32
2022-10-07T11:20:47.226Z,72.55
2022-10-07T11:21:44.511Z,73.03
2022-10-07T11:22:44.512Z,73.41
2022-10-07T11:23:44.244Z,73.99
2022-10-07T11:24:44.489Z,73.32
2022-10-07T11:25:44.494Z,74.08
2022-10-07T11:26:44.223Z,73.61
2022-10-07T11:27:44.471Z,73.41
2022-10-07T11:28:44.672Z,72.55
2022-10-07T11:29:44.458Z,71.98
2022-10-07T11:30:44.452Z,72.27
2022-10-07T11:31:44.365Z,72.45
2022-10-07T11:32:44.743Z,72.27
2022-10-07T11:33:44.478Z,72.94
2022-10-07T11:34:44.174Z,72.68
2022-10-07T11:35:44.417Z,73.16
2022-10-07T11:36:44.164Z,73.16
2022-10-07T11:37:44.144Z,73.45
2022-10-07T11:38:44.142Z,73.07
2022-10-07T11:39:44.394Z,73.26
2022-10-07T11:40:44.385Z,73.07
2022-10-07T11:41:44.377Z,73.65
2022-10-07T11:42:44.430Z,74.02
2022-10-07T11:43:44.362Z,73.55
2022-10-07T11:44:44.360Z,73.97
2022-10-07T11:45:44.093Z,73.49
2022-10-07T11:46:44.611Z,72.43
2022-10-07T11:47:44.082Z,71.95
2022-10-07T11:48:44.339Z,71.66
2022-10-07T11:49:44.396Z,71.28
2022-10-07T11:50:44.065Z,71.76
2022-10-07T11:51:44.061Z,71.86
2022-10-07T11:52:44.192Z,72.14
2022-10-07T11:53:44.318Z,71.86
2022-10-07T11:54:44.301Z,71.57
2022-10-07T11:55:44.033Z,71.19
2022-10-07T11:56:44.282Z,71.09
2022-10-07T11:57:44.029Z,71.72
2022-10-07T11:58:44.271Z,72.14
2022-10-07T11:59:44.263Z,72.11
2022-10-07T12:00:44.269Z,72.24
2022-10-07T12:01:44.447Z,71.92
2022-10-07T12:02:44.810Z,72.59
2022-10-07T12:03:44.245Z,72.68
2022-10-07T12:04:43.983Z,72.88
2022-10-07T12:05:44.275Z,72.63
2022-10-07T12:06:43.965Z,72.78
2022-10-07T12:07:44.219Z,72.88
2022-10-07T12:08:44.219Z,72.43
2022-10-07T12:09:44.201Z,72.68
2022-10-07T12:10:43.946Z,72.78
2022-10-07T12:11:43.955Z,73.45
2022-10-07T12:12:44.799Z,74.22
2022-10-07T12:13:43.943Z,74.22
2022-10-07T12:14:43.973Z,73.35
2022-10-07T12:15:44.189Z,73.83
2022-10-07T12:16:44.711Z,73.55
2022-10-07T12:17:44.155Z,73.65
2022-10-07T12:18:43.897Z,73.97
2022-10-07T12:19:44.171Z,73.74
2022-10-07T12:20:44.138Z,73.58
2022-10-07T12:21:44.218Z,73.58
2022-10-07T12:22:44.320Z,73.55
2022-10-07T12:23:43.897Z,73.26
2022-10-07T12:24:44.113Z,73.45
2022-10-07T12:25:43.860Z,73.26
2022-10-07T12:26:44.108Z,73.45
2022-10-07T12:27:44.099Z,73.83
2022-10-07T12:28:44.316Z,73.74
2022-10-07T12:29:44.087Z,73.45
2022-10-07T12:30:44.078Z,73.45
2022-10-07T12:31:44.055Z,72.97
2022-10-07T12:32:44.151Z,73.26
2022-10-07T12:33:44.063Z,73.65
2022-10-07T12:34:43.801Z,73.55
2022-10-07T12:35:43.790Z,73.45
2022-10-07T12:36:44.051Z,73.74
2022-10-07T12:37:44.140Z,74.31
2022-10-07T12:38:44.036Z,74.41
2022-10-07T12:39:44.045Z,75.27
2022-10-07T12:40:44.018Z,75.5
2022-10-07T12:41:43.757Z,75.02
2022-10-07T12:42:44.260Z,74.93
2022-10-07T12:43:43.740Z,74.16
2022-10-07T12:44:43.989Z,73.77
2022-10-07T12:45:44.081Z,73.77
2022-10-07T12:46:43.726Z,73.58
2022-10-07T12:47:43.722Z,73.49
2022-10-07T12:48:43.967Z,73.2
2022-10-07T12:49:43.963Z,73.39
2022-10-07T12:50:43.955Z,72.81
2022-10-07T12:51:43.700Z,72.43
2022-10-07T12:52:44.272Z,72.24
2022-10-07T12:53:44.082Z,72.53
2022-10-07T12:54:43.929Z,72.33
2022-10-07T12:55:43.927Z,72.14
2022-10-07T12:56:43.667Z,73.2
2022-10-07T12:57:43.659Z,73
2022-10-07T12:58:43.654Z,72.81
2022-10-07T12:59:43.904Z,73.2
2022-10-07T13:00:44.014Z,73.39
2022-10-07T13:01:44.155Z,72.97
2022-10-07T13:02:44.200Z,72.78
2022-10-07T13:03:43.887Z,73.45
2022-10-07T13:04:43.616Z,73.83
2022-10-07T13:05:43.873Z,73.16
2022-10-07T13:06:43.863Z,73.16
2022-10-07T13:07:43.606Z,73.07
2022-10-07T13:08:43.848Z,73.83
2022-10-07T13:09:43.895Z,73.16
2022-10-07T13:10:43.582Z,72.97